createdAt,value
2022-08-07T00:00:41.676Z,57.41
2022-08-07T00:03:09.406Z,57.94
2022-08-07T00:05:37.176Z,57.92
2022-08-07T00:08:04.979Z,57.86
2022-08-07T00:10:34.935Z,58.64
2022-08-07T00:13:17.440Z,58.09
2022-08-07T00:15:52.296Z,57.86
2022-08-07T00:18:24.933Z,57.92
2022-08-07T00:20:57.730Z,58.17
2022-08-07T00:23:30.065Z,58.10
2022-08-07T00:26:01.633Z,57.83
2022-08-07T00:28:34.526Z,58.26
2022-08-07T00:31:16.550Z,59.29
2022-08-07T00:33:47.732Z,58.99
2022-08-07T00:36:15.383Z,58.61
2022-08-07T00:38:44.239Z,59.79
2022-08-07T00:41:14.615Z,59.25
2022-08-07T00:43:59.388Z,60.06
2022-08-07T00:46:30.352Z,59.81
2022-08-07T00:49:02.713Z,59.25
2022-08-07T00:51:57.695Z,59.37
2022-08-07T00:54:19.596Z,59.69
2022-08-07T00:56:49.757Z,59.46
2022-08-07T00:59:20.145Z,59.77
2022-08-07T01:01:48.530Z,60.33
2022-08-07T01:04:24.806Z,60.39
2022-08-07T01:06:52.316Z,60.33
2022-08-07T01:10:04.157Z,60.15
2022-08-07T01:12:28.250Z,60.28
2022-08-07T01:15:01.019Z,60.51
2022-08-07T01:17:29.834Z,61.72
2022-08-07T01:20:01.462Z,62.02
2022-08-07T01:22:29.752Z,62.10
2022-08-07T01:24:58.095Z,61.44
2022-08-07T01:27:25.495Z,61.41
2022-08-07T01:30:01.242Z,61.48
2022-08-07T01:32:29.750Z,61.21
2022-08-07T01:34:58.896Z,61.43
2022-08-07T01:37:26.935Z,61.57
2022-08-07T01:40:02.079Z,61.36
2022-08-07T01:42:39.377Z,61.70
2022-08-07T01:45:18.416Z,61.23
2022-08-07T01:48:20.223Z,62.61
2022-08-07T01:50:43.055Z,62.22
2022-08-07T01:53:20.883Z,62.12
2022-08-07T01:55:58.460Z,61.75
2022-08-07T01:58:33.037Z,61.98
2022-08-07T02:01:09.975Z,62.03
2022-08-07T02:03:53.867Z,61.70
2022-08-07T02:06:31.867Z,61.39
2022-08-07T02:09:04.506Z,61.58
2022-08-07T02:12:02.830Z,61.50
2022-08-07T02:14:35.626Z,60.97
2022-08-07T02:17:04.010Z,61.58
2022-08-07T02:20:04.452Z,62.19
2022-08-07T02:22:25.764Z,61.43
2022-08-07T02:24:55.409Z,61.21
2022-08-07T02:27:23.902Z,61.20
2022-08-07T02:29:54.489Z,60.92
2022-08-07T02:32:26.963Z,60.56
2022-08-07T02:34:58.007Z,60.26
2022-08-07T02:37:28.244Z,60.49
2022-08-07T02:40:31.222Z,60.26
2022-08-07T02:42:51.475Z,60.17
2022-08-07T02:45:58.980Z,59.90
2022-08-07T02:48:15.336Z,60.01
2022-08-07T02:50:47.460Z,60.02
2022-08-07T02:53:17.798Z,60.46
2022-08-07T02:56:02.260Z,60.37
2022-08-07T02:58:34.157Z,60.26
2022-08-07T03:01:03.349Z,60.31
2022-08-07T03:03:49.227Z,60.11
2022-08-07T03:06:32.029Z,59.83
2022-08-07T03:09:02.313Z,60.23
2022-08-07T03:11:32.823Z,60.16
2022-08-07T03:14:06.690Z,60.99
2022-08-07T03:16:34.707Z,60.23
2022-08-07T03:19:01.999Z,60.61
2022-08-07T03:21:33.034Z,60.45
2022-08-07T03:24:20.195Z,60.17
2022-08-07T03:26:58.786Z,59.98
2022-08-07T03:29:37.748Z,59.80
2022-08-07T03:32:13.059Z,60.29
2022-08-07T03:34:47.021Z,60.24
2022-08-07T03:37:27.430Z,59.91
2022-08-07T03:39:59.443Z,59.85
2022-08-07T03:42:42.440Z,60.25
2022-08-07T03:45:11.998Z,60.08
2022-08-07T03:47:48.162Z,59.77
2022-08-07T03:50:23.359Z,59.81
2022-08-07T03:52:52.879Z,60.03
2022-08-07T03:55:20.764Z,60.01
2022-08-07T03:58:33.262Z,60.75
2022-08-07T04:00:38.684Z,59.93
2022-08-07T04:03:13.870Z,60.25
2022-08-07T04:05:42.541Z,60.68
2022-08-07T04:08:21.177Z,60.32
2022-08-07T04:10:54.562Z,60.85
2022-08-07T04:14:09.307Z,61.44
2022-08-07T04:16:31.530Z,61.20
2022-08-07T04:19:04.111Z,61.62
2022-08-07T04:21:39.896Z,61.47
2022-08-07T04:24:33.648Z,61.29
2022-08-07T04:27:05.027Z,61.67
2022-08-07T04:29:45.684Z,61.81
2022-08-07T04:32:33.880Z,61.51
2022-08-07T04:35:11.120Z,62.09
2022-08-07T04:37:52.705Z,61.86
2022-08-07T04:40:29.600Z,61.59
2022-08-07T04:43:01.986Z,61.94
2022-08-07T04:45:57.562Z,61.82
2022-08-07T04:48:38.177Z,62.08
2022-08-07T04:51:09.197Z,61.61
2022-08-07T04:54:05.632Z,61.34
2022-08-07T04:58:12.162Z,59.62
2022-08-07T05:00:09.919Z,60.00
2022-08-07T05:02:43.465Z,59.94
2022-08-07T05:05:53.291Z,59.16
2022-08-07T05:08:58.887Z,58.67
2022-08-07T05:11:26.100Z,59.41
2022-08-07T05:14:52.111Z,58.78
2022-08-07T05:17:05.964Z,57.63
2022-08-07T05:19:44.877Z,57.48
2022-08-07T05:22:19.092Z,58.11
2022-08-07T05:24:57.290Z,57.87
2022-08-07T05:28:03.068Z,57.08
2022-08-07T05:30:16.739Z,56.72
2022-08-07T05:32:59.586Z,55.54
2022-08-07T05:35:33.203Z,55.27
2022-08-07T05:38:09.116Z,55.14
2022-08-07T05:40:50.700Z,54.43
2022-08-07T05:43:19.581Z,54.47
2022-08-07T05:46:07.005Z,53.79
2022-08-07T05:48:34.452Z,54.58
2022-08-07T05:51:03.889Z,54.65
2022-08-07T05:54:12.183Z,53.28
2022-08-07T05:56:29.906Z,54.15
2022-08-07T05:58:59.884Z,53.81
2022-08-07T06:01:35.719Z,52.77
2022-08-07T06:04:05.058Z,53.31
2022-08-07T06:06:38.309Z,52.84
2022-08-07T06:09:15.232Z,54.17
2022-08-07T06:11:45.747Z,53.18
2022-08-07T06:14:20.974Z,52.41
2022-08-07T06:16:56.423Z,52.54
2022-08-07T06:19:47.861Z,50.91
2022-08-07T06:22:23.288Z,51.41
2022-08-07T06:25:01.240Z,52.67
2022-08-07T06:28:00.636Z,52.92
2022-08-07T06:30:35.191Z,52.39
2022-08-07T06:33:15.762Z,52.15
2022-08-07T06:36:06.264Z,52.35
2022-08-07T06:38:35.106Z,51.13
2022-08-07T06:41:06.964Z,50.93
2022-08-07T06:43:39.481Z,49.81
2022-08-07T06:46:14.517Z,50.71
2022-08-07T06:48:44.659Z,50.31
2022-08-07T06:51:31.273Z,49.82
2022-08-07T06:55:29.206Z,51.53
2022-08-07T06:56:53.729Z,50.42
2022-08-07T07:00:12.289Z,49.81
2022-08-07T07:02:48.777Z,50.70
2022-08-07T07:05:07.922Z,50.81
2022-08-07T07:07:59.797Z,51.55
2022-08-07T07:10:33.468Z,51.01
2022-08-07T07:13:14.495Z,49.93
2022-08-07T07:15:44.458Z,49.54
2022-08-07T07:18:46.874Z,49.83
2022-08-07T07:21:40.532Z,49.68
2022-08-07T07:24:17.532Z,47.47
2022-08-07T07:26:49.602Z,47.73
2022-08-07T07:29:40.354Z,46.70
2022-08-07T07:32:09.530Z,45.70
2022-08-07T07:34:39.628Z,46.65
2022-08-07T07:37:22.181Z,44.30
2022-08-07T07:39:57.744Z,44.96
2022-08-07T07:42:32.829Z,45.16
2022-08-07T07:45:02.052Z,44.50
2022-08-07T07:47:30.287Z,45.90
2022-08-07T07:50:33.945Z,45.85
2022-08-07T07:53:06.059Z,43.52
2022-08-07T07:55:57.707Z,44.99
2022-08-07T07:58:30.037Z,43.41
2022-08-07T08:00:57.982Z,42.65
2022-08-07T08:04:09.773Z,43.61
2022-08-07T08:06:14.213Z,42.87
2022-08-07T08:08:43.026Z,43.39
2022-08-07T08:11:16.317Z,41.57
2022-08-07T08:13:58.729Z,40.55
2022-08-07T08:16:50.466Z,40.54
2022-08-07T08:20:16.092Z,39.41
2022-08-07T08:22:32.562Z,39.89
2022-08-07T08:25:27.002Z,39.91
2022-08-07T08:28:11.443Z,39.42
2022-08-07T08:30:51.541Z,37.85
2022-08-07T08:33:24.646Z,38.45
2022-08-07T08:35:57.437Z,36.21
2022-08-07T08:38:35.425Z,38.74
2022-08-07T08:41:11.987Z,36.88
2022-08-07T08:43:55.894Z,37.41
2022-08-07T08:46:34.185Z,36.95
2022-08-07T08:49:10.416Z,36.79
2022-08-07T08:52:12.487Z,35.75
2022-08-07T08:54:47.504Z,35.75
2022-08-07T08:57:25.850Z,36.89
2022-08-07T09:00:04.341Z,35.56
2022-08-07T09:02:41.903Z,35.79
2022-08-07T09:05:37.471Z,35.99
2022-08-07T09:08:05.529Z,34.55
2022-08-07T09:10:37.699Z,35.38
2022-08-07T09:13:14.638Z,34.32
2022-08-07T09:16:24.457Z,34.86
2022-08-07T09:18:58.746Z,34.31
2022-08-07T09:21:58.141Z,34.16
2022-08-07T09:24:54.980Z,33.90
2022-08-07T09:27:28.777Z,33.29
2022-08-07T09:30:08.473Z,34.23
2022-08-07T09:32:54.369Z,35.04
2022-08-07T09:36:04.272Z,32.58
2022-08-07T09:38:39.212Z,31.39
2022-08-07T09:41:14.061Z,32.22
2022-08-07T09:44:05.585Z,32.57
2022-08-07T09:47:50.933Z,32.87
2022-08-07T09:50:00.531Z,33.19
2022-08-07T09:52:51.836Z,33.28
2022-08-07T09:55:29.335Z,32.31
2022-08-07T09:58:32.491Z,31.78
2022-08-07T10:01:52.123Z,32.31
2022-08-07T10:04:28.243Z,33.01
2022-08-07T10:07:25.939Z,31.85
2022-08-07T10:10:03.003Z,32.33
2022-08-07T10:12:33.894Z,31.81
2022-08-07T10:15:26.264Z,31.66
2022-08-07T10:18:08.435Z,32.64
2022-08-07T10:20:54.655Z,31.13
2022-08-07T10:24:05.192Z,31.09
2022-08-07T10:26:34.172Z,30.60
2022-08-07T10:29:10.343Z,31.38
2022-08-07T10:31:49.632Z,32.23
2022-08-07T10:34:27.377Z,29.35
2022-08-07T10:37:12.306Z,29.99
2022-08-07T10:40:05.533Z,30.48
2022-08-07T10:42:38.583Z,30.94
2022-08-07T10:45:57.624Z,31.37
2022-08-07T10:48:11.893Z,30.62
2022-08-07T10:51:01.720Z,30.35
2022-08-07T10:53:44.450Z,31.07
2022-08-07T10:56:30.119Z,31.42
2022-08-07T10:59:21.119Z,30.24
2022-08-07T11:02:05.287Z,30.55
2022-08-07T11:04:50.417Z,30.88
2022-08-07T11:07:58.982Z,29.69
2022-08-07T11:10:38.870Z,29.75
2022-08-07T11:13:16.770Z,29.29
2022-08-07T11:16:10.000Z,29.25
2022-08-07T11:18:42.370Z,29.28
2022-08-07T11:21:32.089Z,29.03
2022-08-07T11:24:04.060Z,30.70
2022-08-07T11:26:49.890Z,28.53
2022-08-07T11:29:41.750Z,31.83
2022-08-07T11:32:15.126Z,28.76
2022-08-07T11:35:01.224Z,29.95
2022-08-07T11:38:09.970Z,29.50
2022-08-07T11:40:40.912Z,28.38
2022-08-07T11:43:41.213Z,28.27
2022-08-07T11:46:17.516Z,28.90
2022-08-07T11:49:50.606Z,28.61
2022-08-07T11:51:51.219Z,28.12
2022-08-07T11:54:30.378Z,28.04
2022-08-07T11:57:03.206Z,29.51
2022-08-07T12:00:10.683Z,28.98
2022-08-07T12:02:31.697Z,28.59
2022-08-07T12:04:58.768Z,29.87
2022-08-07T12:07:39.036Z,29.74
2022-08-07T12:10:15.485Z,28.82
2022-08-07T12:12:46.457Z,27.64
2022-08-07T12:15:17.232Z,28.55
2022-08-07T12:18:29.916Z,28.99
2022-08-07T12:21:01.963Z,29.34
2022-08-07T12:24:05.860Z,29.23
2022-08-07T12:26:50.454Z,29.31
2022-08-07T12:29:37.116Z,28.38
2022-08-07T12:32:12.126Z,28.74
2022-08-07T12:34:40.608Z,29.24
2022-08-07T12:37:16.546Z,28.23
2022-08-07T12:39:50.865Z,29.51
2022-08-07T12:42:27.737Z,28.03
2022-08-07T12:44:57.937Z,28.37
2022-08-07T12:47:30.687Z,28.90
2022-08-07T12:50:05.157Z,29.18
2022-08-07T12:52:52.381Z,28.39
2022-08-07T12:55:41.434Z,28.31
2022-08-07T12:58:28.201Z,28.05
2022-08-07T13:01:05.786Z,27.22
2022-08-07T13:04:02.597Z,28.00
2022-08-07T13:07:00.604Z,26.52
2022-08-07T13:10:20.542Z,27.13
2022-08-07T13:12:44.477Z,27.42
2022-08-07T13:15:34.584Z,27.45
2022-08-07T13:18:26.762Z,27.46
2022-08-07T13:21:05.035Z,27.56
2022-08-07T13:24:03.882Z,28.35
2022-08-07T13:26:49.146Z,27.66
2022-08-07T13:29:21.683Z,27.63
2022-08-07T13:32:23.765Z,27.82
2022-08-07T13:34:56.576Z,28.37
2022-08-07T13:37:28.142Z,28.71
2022-08-07T13:40:36.633Z,28.54
2022-08-07T13:43:02.340Z,29.19
2022-08-07T13:46:11.455Z,29.01
2022-08-07T13:48:27.779Z,29.84
2022-08-07T13:51:02.699Z,28.84
2022-08-07T13:54:00.537Z,29.46
2022-08-07T13:56:36.202Z,30.10
2022-08-07T13:59:12.170Z,29.85
2022-08-07T14:01:59.163Z,29.99
2022-08-07T14:04:35.825Z,30.45
2022-08-07T14:07:09.258Z,29.56
2022-08-07T14:10:12.340Z,29.88
2022-08-07T14:12:58.667Z,29.25
2022-08-07T14:15:35.024Z,29.60
2022-08-07T14:18:23.663Z,30.56
2022-08-07T14:20:54.675Z,29.67
2022-08-07T14:23:31.683Z,29.79
2022-08-07T14:26:30.409Z,30.37
2022-08-07T14:29:06.058Z,30.31
2022-08-07T14:31:42.468Z,30.43
2022-08-07T14:34:11.882Z,30.49
2022-08-07T14:36:56.235Z,30.65
2022-08-07T14:40:17.300Z,29.79
2022-08-07T14:42:18.321Z,29.96
2022-08-07T14:44:52.305Z,29.22
2022-08-07T14:47:20.064Z,29.43
2022-08-07T14:52:37.694Z,30.27
